createdAt,value
2019-05-05T00:01:52.515Z,26.90
2019-05-05T00:04:27.712Z,27.00
2019-05-05T00:06:55.325Z,26.70
2019-05-05T00:09:25.080Z,26.70
2019-05-05T00:11:54.701Z,26.80
2019-05-05T00:17:30.339Z,26.60
2019-05-05T00:19:57.937Z,26.30
2019-05-05T00:22:25.540Z,26.70
2019-05-05T00:24:54.612Z,26.30
2019-05-05T00:27:22.411Z,26.40
2019-05-05T00:29:49.961Z,26.20
2019-05-05T00:32:17.582Z,26.40
2019-05-05T00:34:45.155Z,26.40
2019-05-05T00:37:14.944Z,26.20
2019-05-05T00:39:42.100Z,26.30
2019-05-05T00:42:09.717Z,26.30
2019-05-05T00:44:37.296Z,26.10
2019-05-05T00:47:06.493Z,26.20
2019-05-05T00:49:45.732Z,26.10
2019-05-05T00:52:05.244Z,26.10
2019-05-05T00:54:34.707Z,25.90
2019-05-05T00:57:04.466Z,26.10
2019-05-05T00:59:32.049Z,26.00
2019-05-05T01:02:17.844Z,26.10
2019-05-05T01:05:04.381Z,25.90
2019-05-05T01:07:31.478Z,25.80
2019-05-05T01:09:59.067Z,25.90
2019-05-05T01:12:27.093Z,25.90
2019-05-05T01:14:55.521Z,25.80
2019-05-05T01:17:25.139Z,25.80
2019-05-05T01:20:01.259Z,25.40
2019-05-05T01:22:21.759Z,25.60
2019-05-05T01:24:49.385Z,25.70
2019-05-05T01:27:16.945Z,25.60
2019-05-05T01:29:45.208Z,25.60
2019-05-05T01:32:15.279Z,25.70
2019-05-05T01:34:44.618Z,25.50
2019-05-05T01:37:16.583Z,25.30
2019-05-05T01:39:45.793Z,25.60
2019-05-05T01:42:15.124Z,25.60
2019-05-05T01:44:44.648Z,25.60
2019-05-05T01:47:12.145Z,25.30
2019-05-05T01:49:39.789Z,25.50
2019-05-05T01:52:07.409Z,25.00
2019-05-05T01:54:35.360Z,25.50
2019-05-05T01:57:05.415Z,25.40
2019-05-05T01:59:35.225Z,25.40
2019-05-05T02:02:04.324Z,25.20
2019-05-05T02:04:34.145Z,25.20
2019-05-05T02:07:01.339Z,25.10
2019-05-05T02:09:28.921Z,25.20
2019-05-05T02:11:56.504Z,25.00
2019-05-05T02:14:24.805Z,25.20
2019-05-05T02:16:54.577Z,25.20
2019-05-05T02:19:22.113Z,25.10
2019-05-05T02:21:49.693Z,25.00
2019-05-05T02:24:17.361Z,25.20
2019-05-05T02:26:45.564Z,25.10
2019-05-05T02:29:14.945Z,25.00
2019-05-05T02:32:01.014Z,25.20
2019-05-05T02:34:30.236Z,25.10
2019-05-05T02:36:57.942Z,25.00
2019-05-05T02:39:25.635Z,25.00
2019-05-05T02:41:54.776Z,25.00
2019-05-05T02:44:25.493Z,25.50
2019-05-05T02:46:55.118Z,25.00
2019-05-05T02:49:25.403Z,25.10
2019-05-05T02:51:55.147Z,24.90
2019-05-05T02:54:22.323Z,25.10
2019-05-05T02:56:51.371Z,25.00
2019-05-05T03:02:05.089Z,24.70
2019-05-05T03:04:33.633Z,25.10
2019-05-05T03:07:01.721Z,25.00
2019-05-05T03:09:29.483Z,24.80
2019-05-05T03:11:57.260Z,24.80
2019-05-05T03:14:24.872Z,24.80
2019-05-05T03:16:54.146Z,24.80
2019-05-05T03:19:23.556Z,24.50
2019-05-05T03:21:51.264Z,24.90
2019-05-05T03:24:18.857Z,24.80
2019-05-05T03:26:46.917Z,24.50
2019-05-05T03:29:20.920Z,24.60
2019-05-05T03:31:48.970Z,24.70
2019-05-05T03:34:16.743Z,24.70
2019-05-05T03:36:44.574Z,24.50
2019-05-05T03:39:14.417Z,24.60
2019-05-05T03:41:54.281Z,24.50
2019-05-05T03:44:24.125Z,24.30
2019-05-05T03:46:51.931Z,24.40
2019-05-05T03:49:19.528Z,24.70
2019-05-05T03:51:47.190Z,24.50
2019-05-05T03:54:15.182Z,24.60
2019-05-05T03:56:44.167Z,24.20
2019-05-05T03:59:13.881Z,24.30
2019-05-05T04:01:52.044Z,24.20
2019-05-05T04:04:21.255Z,24.20
2019-05-05T04:06:50.682Z,24.20
2019-05-05T04:09:18.530Z,24.20
2019-05-05T04:11:46.868Z,24.40
2019-05-05T04:14:14.467Z,24.30
2019-05-05T04:16:59.848Z,24.10
2019-05-05T04:19:29.065Z,24.40
2019-05-05T04:21:56.661Z,24.70
2019-05-05T04:24:24.278Z,24.10
2019-05-05T04:26:51.857Z,24.10
2019-05-05T04:29:19.435Z,24.60
2019-05-05T04:31:47.090Z,24.50
2019-05-05T04:34:14.706Z,24.20
2019-05-05T04:36:44.247Z,24.20
2019-05-05T04:39:11.638Z,24.20
2019-05-05T04:41:39.214Z,24.20
2019-05-05T04:44:06.808Z,24.20
2019-05-05T04:46:34.422Z,24.10
2019-05-05T04:49:15.774Z,24.30
2019-05-05T04:51:49.986Z,24.10
2019-05-05T04:54:18.618Z,24.20
2019-05-05T04:56:46.190Z,24.20
2019-05-05T04:59:14.397Z,24.20
2019-05-05T05:01:44.004Z,24.50
2019-05-05T05:04:33.560Z,25.10
2019-05-05T05:07:01.587Z,24.60
2019-05-05T05:09:29.148Z,24.10
2019-05-05T05:11:56.755Z,24.60
2019-05-05T05:14:24.814Z,24.10
2019-05-05T05:16:54.172Z,24.10
2019-05-05T05:19:24.063Z,24.40
2019-05-05T05:21:59.450Z,24.20
2019-05-05T05:24:20.604Z,24.80
2019-05-05T05:26:48.252Z,24.20
2019-05-05T05:29:15.865Z,24.40
2019-05-05T05:31:44.278Z,24.70
2019-05-05T05:34:12.144Z,24.90
2019-05-05T05:36:39.756Z,25.00
2019-05-05T05:39:08.958Z,25.20
2019-05-05T05:41:55.811Z,25.50
2019-05-05T05:44:34.307Z,25.70
2019-05-05T05:47:09.652Z,26.10
2019-05-05T05:49:48.113Z,25.60
2019-05-05T05:52:18.949Z,25.70
2019-05-05T05:54:44.990Z,25.70
2019-05-05T05:57:13.614Z,25.70
2019-05-05T05:59:41.454Z,25.90
2019-05-05T06:02:12.682Z,26.50
2019-05-05T06:04:38.306Z,28.30
2019-05-05T06:07:05.923Z,27.50
2019-05-05T06:09:34.478Z,27.00
2019-05-05T06:12:03.609Z,27.70
2019-05-05T06:14:31.336Z,28.40
2019-05-05T06:16:58.917Z,28.90
2019-05-05T06:19:26.494Z,29.30
2019-05-05T06:21:54.372Z,29.20
2019-05-05T06:24:23.922Z,28.00
2019-05-05T06:26:51.365Z,28.10
2019-05-05T06:29:19.019Z,27.80
2019-05-05T06:31:46.607Z,28.20
2019-05-05T06:34:14.181Z,28.10
2019-05-05T06:36:41.762Z,28.30
2019-05-05T06:39:09.341Z,28.90
2019-05-05T06:41:44.392Z,29.30
2019-05-05T06:44:24.624Z,29.30
2019-05-05T06:47:08.545Z,29.90
2019-05-05T06:49:36.113Z,28.70
2019-05-05T06:52:04.201Z,28.80
2019-05-05T06:54:31.949Z,29.30
2019-05-05T06:56:59.519Z,28.00
2019-05-05T06:59:27.075Z,28.50
2019-05-05T07:01:54.662Z,29.30
2019-05-05T07:04:24.369Z,28.60
2019-05-05T07:06:56.199Z,28.30
2019-05-05T07:09:20.805Z,27.70
2019-05-05T07:11:48.384Z,27.30
2019-05-05T07:14:15.970Z,27.60
2019-05-05T07:16:43.872Z,27.10
2019-05-05T07:19:11.563Z,27.50
2019-05-05T07:21:39.142Z,27.50
2019-05-05T07:24:06.731Z,27.80
2019-05-05T07:26:34.339Z,27.90
2019-05-05T07:29:01.947Z,28.30
2019-05-05T07:31:29.494Z,28.00
2019-05-05T07:33:57.073Z,27.30
2019-05-05T07:36:34.066Z,27.10
2019-05-05T07:39:03.748Z,27.10
2019-05-05T07:41:31.161Z,27.10
2019-05-05T07:43:58.743Z,27.30
2019-05-05T07:46:26.381Z,27.10
2019-05-05T07:48:54.502Z,27.30
2019-05-05T07:51:24.119Z,26.90
2019-05-05T07:53:51.557Z,26.50
2019-05-05T07:56:19.124Z,26.30
2019-05-05T07:58:46.679Z,26.30
2019-05-05T08:01:14.316Z,26.30
2019-05-05T08:03:41.927Z,26.30
2019-05-05T08:06:09.523Z,26.20
2019-05-05T08:08:37.070Z,26.60
2019-05-05T08:11:04.891Z,26.30
2019-05-05T08:13:33.619Z,26.40
2019-05-05T08:16:08.658Z,25.90
2019-05-05T08:18:54.362Z,25.70
2019-05-05T08:21:23.960Z,25.70
2019-05-05T08:23:54.027Z,26.00
2019-05-05T08:26:26.074Z,25.90
2019-05-05T08:28:58.066Z,25.80
2019-05-05T08:31:33.948Z,25.90
2019-05-05T08:34:03.336Z,25.80
2019-05-05T08:36:30.919Z,25.80
2019-05-05T08:38:58.503Z,26.30
2019-05-05T08:41:26.103Z,25.80
2019-05-05T08:43:54.282Z,25.80
2019-05-05T08:46:22.038Z,25.60
2019-05-05T08:48:49.641Z,25.70
2019-05-05T08:51:17.197Z,25.50
2019-05-05T08:53:48.132Z,25.30
2019-05-05T08:56:14.719Z,25.40
2019-05-05T08:58:43.817Z,25.50
2019-05-05T09:01:11.598Z,25.20
2019-05-05T09:03:39.183Z,25.50
2019-05-05T09:06:06.730Z,25.40
2019-05-05T09:08:34.791Z,25.00
2019-05-05T09:11:04.536Z,25.40
2019-05-05T09:13:33.869Z,25.30
2019-05-05T09:16:01.102Z,24.90
2019-05-05T09:18:28.680Z,24.80
2019-05-05T09:20:56.273Z,24.90
2019-05-05T09:23:24.121Z,25.00
2019-05-05T09:25:59.527Z,25.00
2019-05-05T09:28:37.528Z,25.00
2019-05-05T09:31:05.128Z,25.30
2019-05-05T09:33:33.915Z,25.10
2019-05-05T09:36:01.664Z,24.80
2019-05-05T09:38:30.330Z,24.90
2019-05-05T09:40:58.081Z,25.00
2019-05-05T09:43:25.684Z,25.00
2019-05-05T09:45:54.456Z,25.10
2019-05-05T09:48:24.143Z,25.00
2019-05-05T09:50:53.907Z,25.20
2019-05-05T09:53:20.923Z,25.00
2019-05-05T09:55:48.500Z,25.20
2019-05-05T09:58:16.065Z,25.20
2019-05-05T10:00:45.303Z,24.40
2019-05-05T10:03:14.575Z,24.40
2019-05-05T10:05:42.711Z,24.80
2019-05-05T10:08:10.309Z,24.50
2019-05-05T10:10:37.892Z,25.00
2019-05-05T10:13:05.477Z,24.50
2019-05-05T10:15:33.048Z,24.50
2019-05-05T10:18:00.672Z,24.40
2019-05-05T10:20:28.279Z,24.50
2019-05-05T10:22:55.875Z,24.90
2019-05-05T10:25:37.109Z,24.50
2019-05-05T10:28:04.714Z,24.50
2019-05-05T10:30:32.338Z,24.30
2019-05-05T10:32:59.906Z,24.30
2019-05-05T10:35:27.482Z,24.40
2019-05-05T10:37:55.056Z,25.20
2019-05-05T10:40:27.186Z,24.40
2019-05-05T10:42:54.816Z,24.50
2019-05-05T10:45:24.235Z,24.40
2019-05-05T10:47:51.709Z,24.40
2019-05-05T10:50:19.390Z,24.40
2019-05-05T10:52:47.260Z,24.40
2019-05-05T10:55:15.066Z,24.40
2019-05-05T10:57:43.578Z,24.40
2019-05-05T11:00:13.177Z,24.40
2019-05-05T11:02:40.852Z,24.40
2019-05-05T11:05:08.430Z,24.40
2019-05-05T11:07:36.005Z,24.50
2019-05-05T11:10:05.251Z,24.40
2019-05-05T11:12:33.756Z,24.40
2019-05-05T11:15:01.375Z,24.40
2019-05-05T11:17:28.957Z,24.40
2019-05-05T11:19:56.568Z,24.40
2019-05-05T11:22:24.290Z,24.60
2019-05-05T11:24:58.228Z,24.40
2019-05-05T11:27:21.313Z,24.50
2019-05-05T11:30:06.968Z,24.40
2019-05-05T11:32:52.770Z,24.40
2019-05-05T11:35:21.994Z,24.40
2019-05-05T11:37:49.587Z,24.40
2019-05-05T11:40:18.791Z,24.40
2019-05-05T11:42:46.414Z,24.50
2019-05-05T11:45:14.883Z,24.50
2019-05-05T11:47:44.376Z,24.40
2019-05-05T11:50:12.090Z,24.40
2019-05-05T11:52:39.662Z,24.40
2019-05-05T11:55:11.531Z,24.50
2019-05-05T11:57:36.589Z,24.50
2019-05-05T12:00:05.791Z,24.40
2019-05-05T12:02:33.570Z,24.40
2019-05-05T12:05:01.233Z,24.40
2019-05-05T12:07:28.843Z,24.30
2019-05-05T12:09:56.959Z,24.30
2019-05-05T12:12:24.571Z,24.30
2019-05-05T12:14:53.879Z,24.30
2019-05-05T12:17:34.510Z,24.30
2019-05-05T12:20:04.740Z,24.30
2019-05-05T12:22:34.063Z,23.60
2019-05-05T12:25:04.165Z,24.00
2019-05-05T12:27:50.319Z,24.00
2019-05-05T12:30:17.899Z,23.80
2019-05-05T12:32:45.481Z,23.60
2019-05-05T12:35:14.856Z,23.90
2019-05-05T12:37:44.449Z,24.30
2019-05-05T12:40:11.854Z,24.40
2019-05-05T12:42:39.465Z,24.30
2019-05-05T12:45:08.656Z,24.30
2019-05-05T12:47:37.901Z,24.40
2019-05-05T12:50:05.560Z,24.40
2019-05-05T12:52:33.549Z,24.40
2019-05-05T12:55:04.310Z,24.40
2019-05-05T12:57:30.686Z,24.50
2019-05-05T12:59:58.309Z,24.40
2019-05-05T13:02:25.885Z,24.50
2019-05-05T13:04:53.584Z,24.30
2019-05-05T13:07:24.444Z,24.40
2019-05-05T13:09:52.059Z,24.40
2019-05-05T13:12:19.689Z,24.40
2019-05-05T13:14:47.253Z,24.40
2019-05-05T13:17:14.864Z,24.40
2019-05-05T13:19:47.020Z,24.40
2019-05-05T13:22:19.056Z,24.40
2019-05-05T13:24:57.264Z,24.50
2019-05-05T13:27:29.637Z,24.40
2019-05-05T13:29:57.227Z,24.40
2019-05-05T13:32:24.869Z,24.40
2019-05-05T13:34:54.101Z,24.50
2019-05-05T13:37:21.838Z,24.40
2019-05-05T13:39:49.420Z,24.40
2019-05-05T13:42:17.006Z,24.50
2019-05-05T13:45:03.958Z,24.40
2019-05-05T13:47:31.701Z,24.40
2019-05-05T13:50:00.973Z,24.40
2019-05-05T13:52:28.520Z,24.40
2019-05-05T13:54:56.096Z,24.40
2019-05-05T13:57:24.608Z,24.40
2019-05-05T13:59:54.409Z,24.40
2019-05-05T14:02:21.774Z,24.40
2019-05-05T14:04:49.410Z,24.40
2019-05-05T14:07:16.986Z,24.40
2019-05-05T14:09:44.647Z,24.50
2019-05-05T14:12:14.487Z,24.50
2019-05-05T14:14:43.930Z,24.40
2019-05-05T14:17:11.296Z,24.50
2019-05-05T14:19:38.892Z,24.50
2019-05-05T14:22:06.508Z,25.00
2019-05-05T14:24:38.434Z,24.50
2019-05-05T14:27:06.015Z,24.50
2019-05-05T14:29:35.185Z,24.60
2019-05-05T14:32:02.808Z,24.50
2019-05-05T14:34:33.405Z,24.60
2019-05-05T14:37:18.912Z,24.50
2019-05-05T14:39:46.591Z,24.60
2019-05-05T14:42:14.733Z,25.00
2019-05-05T14:44:43.742Z,24.50
2019-05-05T14:47:13.575Z,24.50
2019-05-05T14:49:40.840Z,24.50
2019-05-05T14:52:08.470Z,24.50
2019-05-05T14:54:36.021Z,24.50
2019-05-05T14:57:04.519Z,24.50
2019-05-05T14:59:34.082Z,24.50
2019-05-05T15:02:01.670Z,24.50
2019-05-05T15:04:30.889Z,24.50
2019-05-05T15:07:00.099Z,25.00
2019-05-05T15:09:45.522Z,24.50
2019-05-05T15:12:29.808Z,24.50
2019-05-05T15:14:57.379Z,24.50
2019-05-05T15:17:24.961Z,24.50
2019-05-05T15:19:54.088Z,24.50
2019-05-05T15:22:23.405Z,24.50
2019-05-05T15:24:51.150Z,24.50
2019-05-05T15:27:18.801Z,24.50
2019-05-05T15:29:46.405Z,24.50
2019-05-05T15:32:14.927Z,24.60
2019-05-05T15:34:43.879Z,24.50
2019-05-05T15:37:11.623Z,24.40
2019-05-05T15:39:39.314Z,25.50
2019-05-05T15:42:06.897Z,24.50
2019-05-05T15:44:34.558Z,24.40
2019-05-05T15:47:02.220Z,23.40
2019-05-05T15:49:29.779Z,22.60
2019-05-05T15:51:57.365Z,22.90
2019-05-05T15:54:24.974Z,22.70
2019-05-05T15:57:03.023Z,22.40
2019-05-05T15:59:23.702Z,22.00
2019-05-05T16:01:51.269Z,22.20
2019-05-05T16:04:18.850Z,22.00
2019-05-05T16:06:46.493Z,21.70
2019-05-05T16:09:14.057Z,22.00
2019-05-05T16:11:41.610Z,21.60
2019-05-05T16:14:09.225Z,21.40
2019-05-05T16:16:44.099Z,21.50
2019-05-05T16:19:27.911Z,21.80
2019-05-05T16:21:59.633Z,21.20
2019-05-05T16:24:28.864Z,21.30
2019-05-05T16:26:56.469Z,20.90
2019-05-05T16:29:24.091Z,21.00
2019-05-05T16:31:53.551Z,20.60
2019-05-05T16:34:20.967Z,21.10
2019-05-05T16:36:48.574Z,20.90
2019-05-05T16:39:16.424Z,20.80
2019-05-05T16:41:44.145Z,21.40
2019-05-05T16:44:11.743Z,19.50
2019-05-05T16:46:39.342Z,20.90
2019-05-05T16:49:06.935Z,22.40
2019-05-05T16:51:39.036Z,22.20
2019-05-05T16:54:08.301Z,22.10
2019-05-05T16:56:35.866Z,22.90
2019-05-05T16:59:03.433Z,20.40
2019-05-05T17:01:31.044Z,20.20
2019-05-05T17:04:09.130Z,19.70
2019-05-05T17:06:28.087Z,21.30
2019-05-05T17:08:55.647Z,21.40
2019-05-05T17:11:24.510Z,21.00
2019-05-05T17:13:54.483Z,21.60
2019-05-05T17:16:26.813Z,23.20
2019-05-05T17:19:05.053Z,22.10
2019-05-05T17:21:34.248Z,21.80
2019-05-05T17:24:01.868Z,22.10
2019-05-05T17:26:29.449Z,21.80
2019-05-05T17:28:57.047Z,22.20
2019-05-05T17:31:24.708Z,22.60
2019-05-05T17:33:53.567Z,22.40
2019-05-05T17:36:24.055Z,22.60
2019-05-05T17:38:51.329Z,22.30
2019-05-05T17:41:26.701Z,21.80
2019-05-05T17:44:03.462Z,21.80
2019-05-05T17:46:35.787Z,21.70
2019-05-05T17:49:23.086Z,21.80
2019-05-05T17:51:50.986Z,22.30
2019-05-05T17:54:29.485Z,22.10
2019-05-05T17:56:57.051Z,21.90
2019-05-05T17:59:24.626Z,22.00
2019-05-05T18:01:54.034Z,21.80
2019-05-05T18:04:21.537Z,21.70
2019-05-05T18:06:53.770Z,21.90
2019-05-05T18:09:25.988Z,21.90
2019-05-05T18:11:57.915Z,21.90
2019-05-05T18:14:33.547Z,22.10
2019-05-05T18:17:01.190Z,22.40
2019-05-05T18:19:28.797Z,22.10
2019-05-05T18:21:56.422Z,22.30
2019-05-05T18:24:24.457Z,22.90
2019-05-05T18:26:53.670Z,23.40
2019-05-05T18:29:21.438Z,23.80
2019-05-05T18:31:49.113Z,24.00
2019-05-05T18:34:16.724Z,24.20
2019-05-05T18:36:44.633Z,24.50
2019-05-05T18:39:13.746Z,24.50
2019-05-05T18:41:44.001Z,24.50
2019-05-05T18:44:13.474Z,24.50
2019-05-05T18:46:41.128Z,24.50
2019-05-05T18:49:08.757Z,24.50
2019-05-05T18:51:36.327Z,24.50
2019-05-05T18:54:04.302Z,24.50
2019-05-05T18:56:32.051Z,24.60
2019-05-05T18:58:59.624Z,24.60
2019-05-05T19:01:31.567Z,24.50
2019-05-05T19:04:04.191Z,24.50
2019-05-05T19:06:36.478Z,24.70
2019-05-05T19:09:06.693Z,24.60
2019-05-05T19:11:34.268Z,24.70
2019-05-05T19:14:01.853Z,24.30
2019-05-05T19:16:29.451Z,24.60
2019-05-05T19:18:57.026Z,24.60
2019-05-05T19:21:26.253Z,24.60
2019-05-05T19:23:54.281Z,24.60
2019-05-05T19:26:24.010Z,24.60
2019-05-05T19:28:51.250Z,24.60
2019-05-05T19:31:18.818Z,24.60
2019-05-05T19:34:05.815Z,31.40
2019-05-05T19:36:34.306Z,29.60
2019-05-05T19:39:04.108Z,28.50
2019-05-05T19:41:31.378Z,27.80
2019-05-05T19:44:01.804Z,27.40
2019-05-05T19:46:29.910Z,27.20
2019-05-05T19:49:15.811Z,27.10
2019-05-05T19:51:44.596Z,27.00
2019-05-05T19:54:14.399Z,26.90
2019-05-05T19:56:41.791Z,27.00
2019-05-05T19:59:09.368Z,27.00
2019-05-05T20:01:37.804Z,26.80
2019-05-05T20:04:05.609Z,26.60
2019-05-05T20:06:33.245Z,26.90
2019-05-05T20:09:00.807Z,26.70
2019-05-05T20:11:28.418Z,26.70
2019-05-05T20:14:06.483Z,26.60
2019-05-05T20:16:29.699Z,26.80
2019-05-05T20:18:57.328Z,26.90
2019-05-05T20:21:24.916Z,26.60
2019-05-05T20:23:52.530Z,26.80
2019-05-05T20:26:20.110Z,26.70
2019-05-05T20:28:47.700Z,26.30
2019-05-05T20:31:15.321Z,26.60
2019-05-05T20:33:50.371Z,26.50
2019-05-05T20:36:19.608Z,26.40
2019-05-05T20:38:51.761Z,26.30
2019-05-05T20:41:20.756Z,26.40
2019-05-05T20:43:48.398Z,26.10
2019-05-05T20:46:15.991Z,26.40
2019-05-05T20:48:44.827Z,26.10
2019-05-05T20:51:13.841Z,26.40
2019-05-05T20:53:41.665Z,26.40
2019-05-05T20:56:09.225Z,26.10
2019-05-05T20:58:36.830Z,26.20
2019-05-05T21:01:04.821Z,26.30
2019-05-05T21:03:34.576Z,26.40
2019-05-05T21:06:04.098Z,26.20
2019-05-05T21:08:31.237Z,26.40
2019-05-05T21:10:58.802Z,26.40
2019-05-05T21:13:26.409Z,26.40
2019-05-05T21:15:54.000Z,26.40
2019-05-05T21:18:23.799Z,26.30
2019-05-05T21:20:50.950Z,26.40
2019-05-05T21:23:29.374Z,26.60
2019-05-05T21:25:58.573Z,26.30
2019-05-05T21:28:26.149Z,26.30
2019-05-05T21:30:54.085Z,26.30
2019-05-05T21:33:23.731Z,26.20
2019-05-05T21:35:51.112Z,26.10
2019-05-05T21:38:18.702Z,26.10
2019-05-05T21:40:46.285Z,26.00
2019-05-05T21:43:15.380Z,26.10
2019-05-05T21:45:44.452Z,25.90
2019-05-05T21:48:13.634Z,25.80
2019-05-05T21:50:42.997Z,25.80
2019-05-05T21:53:14.665Z,25.60
2019-05-05T21:55:49.884Z,25.40
2019-05-05T21:58:22.379Z,25.50
2019-05-05T22:00:54.847Z,25.20
2019-05-05T22:03:24.227Z,25.50
2019-05-05T22:05:53.920Z,25.40
2019-05-05T22:08:21.100Z,25.20
2019-05-05T22:10:48.696Z,25.00
2019-05-05T22:13:16.274Z,25.10
2019-05-05T22:15:43.882Z,25.10
2019-05-05T22:18:11.445Z,25.00
2019-05-05T22:20:44.181Z,24.50
2019-05-05T22:23:11.943Z,25.00
2019-05-05T22:25:39.496Z,25.00
2019-05-05T22:28:07.091Z,24.80
2019-05-05T22:30:35.546Z,24.70
2019-05-05T22:33:05.740Z,24.70
2019-05-05T22:35:34.354Z,24.30
2019-05-05T22:38:05.826Z,24.70
2019-05-05T22:40:31.828Z,24.40
2019-05-05T22:42:59.401Z,24.40
2019-05-05T22:45:26.985Z,24.30
2019-05-05T22:47:54.678Z,24.30
2019-05-05T22:50:24.546Z,24.30
2019-05-05T22:52:51.571Z,24.40
2019-05-05T22:55:19.323Z,24.40
2019-05-05T22:57:46.925Z,24.30
2019-05-05T23:00:26.035Z,24.30
2019-05-05T23:02:59.299Z,24.30
2019-05-05T23:05:31.743Z,24.30
2019-05-05T23:07:59.315Z,24.30
2019-05-05T23:10:26.864Z,24.30
2019-05-05T23:12:54.516Z,24.40
2019-05-05T23:15:25.279Z,24.30
2019-05-05T23:17:54.317Z,24.40
2019-05-05T23:20:51.261Z,24.30
2019-05-05T23:23:20.538Z,24.30
2019-05-05T23:25:49.736Z,24.30
2019-05-05T23:28:17.377Z,24.30
2019-05-05T23:30:44.964Z,24.30
2019-05-05T23:33:14.309Z,24.30
2019-05-05T23:35:43.716Z,24.30
2019-05-05T23:38:11.446Z,24.30
2019-05-05T23:40:39.041Z,24.30
2019-05-05T23:43:06.583Z,24.30
2019-05-05T23:45:34.435Z,24.30
2019-05-05T23:48:03.711Z,24.30
2019-05-05T23:50:33.672Z,24.30
2019-05-05T23:53:00.707Z,24.30
2019-05-05T23:55:28.291Z,24.30
2019-05-05T23:57:55.869Z,24.30
